createdAt,value
2023-05-20T00:00:28.100Z,7.72
2023-05-20T00:03:01.690Z,5.65
2023-05-20T00:05:29.849Z,5.85
2023-05-20T00:07:59.599Z,5.15
2023-05-20T00:10:34.974Z,11.00
2023-05-20T00:13:09.518Z,4.47
2023-05-20T00:15:39.056Z,4.88
2023-05-20T00:18:18.566Z,6.28
2023-05-20T00:21:04.130Z,5.00
2023-05-20T00:23:38.725Z,4.07
2023-05-20T00:26:08.141Z,4.75
2023-05-20T00:28:39.086Z,3.75
2023-05-20T00:31:13.456Z,7.20
2023-05-20T00:33:43.897Z,6.65
2023-05-20T00:36:17.273Z,5.38
2023-05-20T00:38:49.827Z,5.82
2023-05-20T00:41:21.513Z,5.30
2023-05-20T00:43:49.531Z,7.00
2023-05-20T00:46:17.688Z,4.25
2023-05-20T00:48:51.474Z,5.43
2023-05-20T00:51:19.707Z,5.45
2023-05-20T00:53:49.168Z,5.15
2023-05-20T00:56:17.834Z,4.18
2023-05-20T00:58:45.941Z,5.38
2023-05-20T01:01:22.836Z,7.25
2023-05-20T01:03:58.563Z,5.47
2023-05-20T01:06:31.399Z,4.40
2023-05-20T01:09:01.337Z,7.75
2023-05-20T01:11:44.073Z,7.22
2023-05-20T01:16:43.595Z,6.10
2023-05-20T01:19:23.697Z,6.45
2023-05-20T01:21:54.489Z,8.82
2023-05-20T01:24:35.176Z,9.18
2023-05-20T01:27:03.916Z,5.40
2023-05-20T01:29:48.804Z,6.55
2023-05-20T01:32:38.660Z,5.93
2023-05-20T01:35:12.167Z,5.45
2023-05-20T01:37:44.964Z,5.72
2023-05-20T01:40:17.442Z,7.00
2023-05-20T01:42:53.720Z,6.68
2023-05-20T01:45:37.825Z,7.60
2023-05-20T01:48:12.050Z,5.07
2023-05-20T01:50:40.914Z,4.53
2023-05-20T01:56:19.216Z,4.88
2023-05-20T01:58:53.026Z,5.22
2023-05-20T02:01:30.849Z,7.07
2023-05-20T02:04:04.474Z,7.68
2023-05-20T02:06:39.986Z,5.63
2023-05-20T02:09:10.895Z,7.30
2023-05-20T02:11:50.780Z,6.43
2023-05-20T02:14:22.190Z,5.47
2023-05-20T02:17:10.935Z,7.78
2023-05-20T02:19:41.871Z,5.00
2023-05-20T02:22:09.894Z,5.00
2023-05-20T02:24:38.101Z,5.18
2023-05-20T02:27:08.293Z,6.80
2023-05-20T02:29:37.066Z,7.40
2023-05-20T02:32:05.796Z,5.10
2023-05-20T02:34:34.437Z,4.13
2023-05-20T02:37:02.813Z,5.70
2023-05-20T02:39:30.903Z,5.78
2023-05-20T02:41:58.866Z,6.13
2023-05-20T02:44:28.380Z,4.97
2023-05-20T02:46:56.359Z,6.53
2023-05-20T02:49:24.442Z,8.52
2023-05-20T02:51:52.443Z,6.85
2023-05-20T02:54:20.523Z,6.03
2023-05-20T02:56:48.525Z,8.07
2023-05-20T02:59:16.863Z,6.75
2023-05-20T03:01:46.386Z,4.53
2023-05-20T03:04:14.467Z,5.03
2023-05-20T03:06:44.384Z,5.63
2023-05-20T03:09:12.769Z,4.68
2023-05-20T03:11:40.861Z,7.38
2023-05-20T03:14:08.945Z,6.93
2023-05-20T03:16:36.982Z,6.72
2023-05-20T03:19:06.550Z,5.68
2023-05-20T03:21:34.624Z,7.50
2023-05-20T03:24:02.595Z,7.93
2023-05-20T03:26:33.215Z,5.28
2023-05-20T03:29:01.267Z,8.50
2023-05-20T03:31:29.414Z,7.05
2023-05-20T03:33:57.494Z,8.35
2023-05-20T03:36:26.914Z,7.03
2023-05-20T03:38:55.228Z,7.55
2023-05-20T03:41:23.905Z,7.57
2023-05-20T03:43:51.959Z,6.40
2023-05-20T03:46:20.085Z,7.32
2023-05-20T03:48:48.114Z,8.38
2023-05-20T03:51:16.138Z,6.68
2023-05-20T03:53:45.592Z,6.90
2023-05-20T03:56:13.671Z,8.00
2023-05-20T03:58:41.901Z,9.38
2023-05-20T04:01:11.168Z,7.45
2023-05-20T04:03:39.264Z,14.30
2023-05-20T04:06:07.408Z,10.13
2023-05-20T04:08:36.661Z,8.52
2023-05-20T04:11:06.209Z,8.75
2023-05-20T04:13:34.490Z,8.95
2023-05-20T04:16:02.939Z,9.95
2023-05-20T04:18:31.831Z,7.00
2023-05-20T04:21:01.577Z,12.40
2023-05-20T04:23:29.658Z,9.55
2023-05-20T04:26:02.168Z,7.88
2023-05-20T04:28:32.296Z,7.57
2023-05-20T04:31:02.773Z,9.82
2023-05-20T04:33:31.291Z,8.60
2023-05-20T04:35:59.481Z,7.75
2023-05-20T04:38:29.962Z,7.78
2023-05-20T04:40:58.925Z,8.75
2023-05-20T04:43:29.971Z,9.15
2023-05-20T04:45:59.905Z,7.75
2023-05-20T04:48:29.024Z,9.57
2023-05-20T04:50:57.072Z,8.20
2023-05-20T04:53:25.474Z,10.77
2023-05-20T04:55:56.917Z,8.20
2023-05-20T04:58:25.505Z,10.43
2023-05-20T05:00:54.294Z,10.02
2023-05-20T05:03:23.795Z,6.57
2023-05-20T05:05:51.812Z,8.25
2023-05-20T05:08:20.027Z,7.03
2023-05-20T05:10:48.127Z,8.02
2023-05-20T05:13:16.272Z,7.88
2023-05-20T05:15:44.342Z,5.05
2023-05-20T05:18:12.468Z,7.32
2023-05-20T05:20:41.904Z,7.30
2023-05-20T05:23:09.937Z,6.63
2023-05-20T05:25:37.977Z,5.43
2023-05-20T05:28:06.130Z,7.03
2023-05-20T05:30:34.136Z,6.78
2023-05-20T05:33:02.316Z,6.72
2023-05-20T05:35:30.451Z,9.75
2023-05-20T05:37:59.838Z,6.05
2023-05-20T05:40:28.830Z,7.38
2023-05-20T05:42:56.868Z,6.60
2023-05-20T05:45:24.868Z,5.80
2023-05-20T05:47:52.897Z,4.65
2023-05-20T05:50:20.955Z,6.65
2023-05-20T05:52:48.996Z,5.63
2023-05-20T05:55:19.258Z,5.95
2023-05-20T05:57:47.281Z,6.90
2023-05-20T06:00:15.943Z,4.82
2023-05-20T06:02:44.057Z,7.05
2023-05-20T06:05:12.161Z,6.10
2023-05-20T06:07:40.284Z,6.97
2023-05-20T06:10:09.361Z,7.15
2023-05-20T06:12:38.863Z,7.88
2023-05-20T06:15:08.082Z,5.78
2023-05-20T06:17:36.122Z,6.55
2023-05-20T06:20:04.552Z,9.23
2023-05-20T06:22:32.593Z,6.72
2023-05-20T06:25:02.498Z,4.82
2023-05-20T06:27:30.870Z,6.57
2023-05-20T06:30:00.264Z,11.27
2023-05-20T06:32:28.820Z,6.05
2023-05-20T06:34:56.723Z,10.02
2023-05-20T06:37:25.168Z,7.60
2023-05-20T06:39:55.122Z,6.70
2023-05-20T06:42:23.056Z,7.97
2023-05-20T06:44:51.033Z,8.90
2023-05-20T06:47:21.382Z,12.90
2023-05-20T06:49:49.439Z,6.68
2023-05-20T06:52:17.379Z,6.90
2023-05-20T06:54:45.316Z,10.73
2023-05-20T06:57:13.291Z,7.18
2023-05-20T06:59:41.653Z,6.90
2023-05-20T07:02:09.621Z,6.72
2023-05-20T07:04:38.966Z,7.07
2023-05-20T07:07:07.170Z,8.25
2023-05-20T07:09:35.283Z,6.50
2023-05-20T07:12:03.879Z,7.43
2023-05-20T07:14:32.106Z,9.15
2023-05-20T07:17:10.757Z,7.50
2023-05-20T07:19:55.791Z,7.57
2023-05-20T07:22:45.249Z,7.50
2023-05-20T07:25:23.853Z,8.02
2023-05-20T07:27:52.312Z,5.38
2023-05-20T07:30:20.747Z,8.57
2023-05-20T07:32:53.689Z,9.68
2023-05-20T07:35:24.456Z,9.90
2023-05-20T07:37:58.241Z,6.35
2023-05-20T07:40:26.564Z,8.50
2023-05-20T07:42:54.949Z,7.22
2023-05-20T07:45:23.182Z,7.97
2023-05-20T07:47:53.650Z,8.52
2023-05-20T07:50:23.369Z,7.30
2023-05-20T07:52:56.608Z,6.50
2023-05-20T07:55:27.661Z,6.57
2023-05-20T07:57:55.953Z,5.82
2023-05-20T08:00:24.523Z,6.65
2023-05-20T08:02:52.762Z,8.95
2023-05-20T08:05:22.747Z,6.65
2023-05-20T08:07:53.700Z,8.57
2023-05-20T08:10:22.027Z,6.90
2023-05-20T08:12:50.115Z,9.13
2023-05-20T08:15:18.317Z,7.78
2023-05-20T08:17:46.366Z,6.97
2023-05-20T08:20:30.643Z,11.32
2023-05-20T08:23:09.644Z,7.60
2023-05-20T08:25:46.846Z,7.93
2023-05-20T08:28:17.137Z,6.82
2023-05-20T08:30:53.350Z,7.82
2023-05-20T08:33:26.759Z,9.93
2023-05-20T08:36:03.365Z,10.77
2023-05-20T08:39:08.421Z,8.48
2023-05-20T08:41:41.765Z,6.07
2023-05-20T08:44:12.845Z,9.57
2023-05-20T08:46:48.231Z,8.48
2023-05-20T08:49:47.334Z,7.35
2023-05-20T08:52:25.954Z,11.05
2023-05-20T08:55:08.085Z,9.32
2023-05-20T08:58:50.801Z,9.50
2023-05-20T09:05:30.517Z,8.38
2023-05-20T09:08:27.339Z,6.63
2023-05-20T09:14:50.270Z,8.18
2023-05-20T09:17:23.272Z,10.00
2023-05-20T09:23:07.124Z,10.63
2023-05-20T09:25:52.399Z,9.25
2023-05-20T09:28:25.667Z,8.73
2023-05-20T09:31:02.597Z,7.05
2023-05-20T09:33:36.859Z,8.77
2023-05-20T09:36:32.329Z,7.85
2023-05-20T09:39:11.200Z,7.03
2023-05-20T09:41:57.002Z,5.55
2023-05-20T09:44:53.087Z,7.97
2023-05-20T09:47:27.416Z,6.00
2023-05-20T09:50:06.345Z,8.70
2023-05-20T09:52:39.440Z,8.18
2023-05-20T09:55:10.477Z,10.05
2023-05-20T09:57:52.051Z,5.95
2023-05-20T10:00:38.192Z,8.73
2023-05-20T10:03:14.486Z,8.38
2023-05-20T10:06:01.797Z,8.15
2023-05-20T10:09:02.770Z,7.10
2023-05-20T10:11:56.170Z,6.72
2023-05-20T10:14:40.242Z,5.88
2023-05-20T10:17:26.099Z,6.80
2023-05-20T10:20:22.018Z,7.97
2023-05-20T10:22:58.398Z,7.10
2023-05-20T10:25:31.763Z,6.60
2023-05-20T10:28:11.688Z,6.68
2023-05-20T10:30:56.871Z,6.82
2023-05-20T10:33:52.041Z,6.38
2023-05-20T10:36:35.534Z,7.53
2023-05-20T10:39:05.650Z,11.80
2023-05-20T10:41:34.920Z,6.45
2023-05-20T10:44:06.718Z,8.23
2023-05-20T10:46:51.473Z,7.93
2023-05-20T10:49:27.763Z,6.32
2023-05-20T10:51:56.341Z,10.90
2023-05-20T10:54:24.737Z,8.77
2023-05-20T10:56:54.042Z,8.25
2023-05-20T10:59:22.784Z,6.60
2023-05-20T11:01:51.681Z,6.72
2023-05-20T11:04:20.687Z,7.03
2023-05-20T11:06:56.020Z,8.07
2023-05-20T11:09:24.686Z,7.90
2023-05-20T11:11:55.034Z,12.75
2023-05-20T11:14:23.526Z,13.20
2023-05-20T11:16:57.442Z,9.80
2023-05-20T11:19:27.044Z,6.68
2023-05-20T11:21:56.837Z,6.88
2023-05-20T11:24:27.095Z,6.80
2023-05-20T11:26:55.425Z,8.70
2023-05-20T11:29:23.572Z,8.65
2023-05-20T11:31:54.597Z,8.35
2023-05-20T11:34:25.782Z,5.88
2023-05-20T11:37:00.034Z,7.95
2023-05-20T11:39:31.956Z,5.85
2023-05-20T11:42:00.056Z,6.20
2023-05-20T11:44:28.104Z,7.28
2023-05-20T11:47:02.485Z,5.88
2023-05-20T11:49:31.017Z,7.85
2023-05-20T11:52:01.057Z,5.93
2023-05-20T11:54:29.628Z,9.73
2023-05-20T11:56:58.145Z,6.60
2023-05-20T11:59:29.602Z,7.55
2023-05-20T12:01:57.942Z,7.57
2023-05-20T12:04:26.426Z,8.07
2023-05-20T12:06:55.898Z,7.22
2023-05-20T12:09:25.763Z,7.47
2023-05-20T12:11:56.013Z,7.20
2023-05-20T12:14:35.741Z,12.27
2023-05-20T12:17:12.296Z,8.60
2023-05-20T12:19:45.012Z,6.75
2023-05-20T12:22:18.938Z,5.50
2023-05-20T12:24:54.689Z,8.45
2023-05-20T12:27:30.800Z,6.88
2023-05-20T12:30:12.511Z,7.68
2023-05-20T12:32:43.624Z,5.53
2023-05-20T12:35:14.701Z,9.73
2023-05-20T12:37:46.438Z,6.67
2023-05-20T12:40:15.940Z,7.65
2023-05-20T12:42:45.583Z,6.22
2023-05-20T12:45:16.218Z,7.68
2023-05-20T12:47:50.877Z,10.50
2023-05-20T12:50:31.223Z,7.32
2023-05-20T12:52:59.414Z,12.48
2023-05-20T12:55:30.963Z,6.78
2023-05-20T12:57:59.009Z,7.75
2023-05-20T13:00:29.695Z,9.32
2023-05-20T13:03:00.238Z,7.55
2023-05-20T13:05:31.360Z,6.45
2023-05-20T13:07:59.520Z,8.13
2023-05-20T13:10:33.660Z,7.97
2023-05-20T13:13:03.991Z,7.13
2023-05-20T13:15:35.583Z,9.45
2023-05-20T13:18:06.538Z,7.88
2023-05-20T13:20:37.756Z,8.80
2023-05-20T13:23:09.304Z,7.07
2023-05-20T13:25:45.583Z,7.07
2023-05-20T13:28:16.698Z,7.80
2023-05-20T13:30:52.504Z,7.93
2023-05-20T13:33:20.984Z,7.03
2023-05-20T13:35:49.054Z,7.93
2023-05-20T13:38:19.278Z,11.45
2023-05-20T13:40:49.105Z,6.28
2023-05-20T13:43:17.375Z,7.43
2023-05-20T13:45:45.424Z,7.70
2023-05-20T13:48:13.583Z,6.38
2023-05-20T13:50:41.799Z,12.25
2023-05-20T13:53:14.891Z,7.70
2023-05-20T13:55:43.326Z,7.47
2023-05-20T13:58:12.966Z,6.35
2023-05-20T14:00:41.556Z,7.43
2023-05-20T14:03:10.519Z,7.72
2023-05-20T14:05:38.973Z,7.07
2023-05-20T14:08:07.129Z,7.13
2023-05-20T14:10:50.097Z,8.18
2023-05-20T14:13:19.937Z,7.90
2023-05-20T14:15:49.377Z,8.68
2023-05-20T14:18:21.384Z,8.02
2023-05-20T14:20:50.067Z,8.57
2023-05-20T14:23:18.377Z,10.38
2023-05-20T14:25:46.378Z,7.93
2023-05-20T14:28:19.225Z,8.55
2023-05-20T14:30:51.581Z,7.57
2023-05-20T14:33:23.471Z,7.65
2023-05-20T14:35:54.538Z,7.45
2023-05-20T14:38:30.306Z,6.50
2023-05-20T14:41:07.276Z,6.28
2023-05-20T14:43:36.884Z,7.93
2023-05-20T14:46:07.465Z,10.25
2023-05-20T14:48:36.668Z,6.97
2023-05-20T14:51:07.253Z,7.65
2023-05-20T14:53:35.408Z,8.23
2023-05-20T14:56:03.493Z,7.47
2023-05-20T14:58:48.643Z,8.75
2023-05-20T15:01:21.833Z,7.78
2023-05-20T15:03:49.912Z,9.40
2023-05-20T15:06:19.893Z,6.97
2023-05-20T15:08:51.876Z,7.55
2023-05-20T15:11:23.510Z,8.55
2023-05-20T15:14:11.680Z,11.18
2023-05-20T15:16:44.727Z,9.63
2023-05-20T15:19:13.773Z,10.38
2023-05-20T15:21:43.754Z,10.35
2023-05-20T15:24:11.708Z,7.78
2023-05-20T15:26:42.878Z,9.50
2023-05-20T15:29:14.217Z,9.32
2023-05-20T15:31:42.306Z,9.97
2023-05-20T15:34:12.010Z,10.85
2023-05-20T15:36:47.330Z,9.30
2023-05-20T15:39:15.378Z,9.40
2023-05-20T15:41:45.789Z,11.73
2023-05-20T15:44:17.936Z,7.75
2023-05-20T15:49:20.997Z,9.55
2023-05-20T15:51:59.457Z,8.88
2023-05-20T15:54:37.246Z,9.85
2023-05-20T15:57:05.913Z,8.82
2023-05-20T15:59:35.620Z,11.50
2023-05-20T16:02:07.396Z,9.90
2023-05-20T16:04:38.409Z,12.80
2023-05-20T16:07:25.301Z,12.48
2023-05-20T16:09:54.149Z,11.27
2023-05-20T16:12:23.588Z,15.00
2023-05-20T16:14:59.094Z,10.52
2023-05-20T16:17:27.164Z,11.55
2023-05-20T16:19:57.479Z,14.90
2023-05-20T16:22:25.496Z,10.63
2023-05-20T16:24:53.597Z,11.32
2023-05-20T16:27:21.751Z,13.20
2023-05-20T16:29:51.465Z,11.13
2023-05-20T16:32:21.830Z,10.70
2023-05-20T16:34:50.263Z,11.98
2023-05-20T16:37:20.388Z,11.43
2023-05-20T16:39:49.080Z,12.55
2023-05-20T16:42:17.270Z,12.48
2023-05-20T16:44:45.425Z,13.85
2023-05-20T16:47:13.483Z,14.60
2023-05-20T16:49:43.262Z,13.75
2023-05-20T16:52:11.904Z,13.05
2023-05-20T16:54:42.965Z,14.25
2023-05-20T16:57:12.524Z,12.65
2023-05-20T16:59:40.788Z,14.48
2023-05-20T17:02:08.791Z,12.52
2023-05-20T17:04:36.784Z,13.43
2023-05-20T17:07:09.700Z,11.35
2023-05-20T17:09:37.742Z,13.65
2023-05-20T17:12:08.727Z,13.60
2023-05-20T17:14:36.986Z,11.80
2023-05-20T17:17:05.563Z,16.00
2023-05-20T17:19:35.262Z,14.18
2023-05-20T17:22:18.635Z,11.20
2023-05-20T17:24:52.352Z,11.98
2023-05-20T17:27:20.488Z,12.52
2023-05-20T17:29:52.160Z,11.63
2023-05-20T17:32:25.236Z,11.93
2023-05-20T17:34:57.615Z,11.95
2023-05-20T17:37:30.001Z,11.93
2023-05-20T17:39:58.026Z,11.93
2023-05-20T17:42:26.097Z,11.85
2023-05-20T17:44:54.046Z,12.55
2023-05-20T17:47:22.202Z,12.27
2023-05-20T17:49:50.519Z,13.05
2023-05-20T17:52:18.398Z,11.65
2023-05-20T17:54:47.644Z,13.75
2023-05-20T17:57:15.674Z,11.35
2023-05-20T17:59:45.492Z,14.75
2023-05-20T18:02:13.597Z,12.35
2023-05-20T18:04:41.581Z,14.60
2023-05-20T18:07:09.604Z,12.27
2023-05-20T18:09:37.559Z,11.55
2023-05-20T18:12:08.305Z,14.57
2023-05-20T18:14:36.266Z,13.02
2023-05-20T18:17:04.274Z,15.32
2023-05-20T18:19:33.713Z,10.88
2023-05-20T18:22:02.773Z,13.95
2023-05-20T18:24:31.080Z,11.85
2023-05-20T18:26:59.119Z,13.60
2023-05-20T18:29:28.515Z,15.02
2023-05-20T18:31:56.714Z,13.57
2023-05-20T18:34:24.786Z,13.13
2023-05-20T18:36:53.102Z,12.57
2023-05-20T18:39:21.668Z,14.82
2023-05-20T18:41:49.986Z,15.70
2023-05-20T18:44:19.356Z,14.00
2023-05-20T18:46:48.975Z,13.05
2023-05-20T18:49:17.124Z,15.82
2023-05-20T18:51:45.253Z,14.35
2023-05-20T18:54:13.356Z,14.60
2023-05-20T18:56:41.595Z,13.77
2023-05-20T18:59:09.622Z,15.88
2023-05-20T19:01:37.719Z,13.07
2023-05-20T19:04:07.180Z,12.27
2023-05-20T19:06:35.265Z,13.10
2023-05-20T19:09:03.711Z,13.27
2023-05-20T19:11:31.735Z,13.93
2023-05-20T19:14:00.036Z,13.93
2023-05-20T19:16:28.121Z,15.13
2023-05-20T19:18:56.313Z,12.63
2023-05-20T19:21:25.798Z,14.90
2023-05-20T19:23:53.709Z,14.35
2023-05-20T19:26:22.036Z,15.65
2023-05-20T19:28:50.095Z,13.32
2023-05-20T19:31:21.050Z,18.60
2023-05-20T19:33:49.323Z,18.55
2023-05-20T19:36:17.659Z,14.88
2023-05-20T19:38:47.699Z,15.70
2023-05-20T19:41:16.156Z,13.70
2023-05-20T19:43:44.089Z,15.18
2023-05-20T19:46:12.170Z,18.00
2023-05-20T19:48:40.177Z,22.52
2023-05-20T19:51:08.182Z,16.83
2023-05-20T19:53:36.944Z,17.02
2023-05-20T19:56:07.792Z,14.40
2023-05-20T19:58:35.918Z,13.25
2023-05-20T20:01:04.489Z,16.13
2023-05-20T20:03:34.224Z,19.27
2023-05-20T20:06:02.476Z,19.88
2023-05-20T20:08:30.590Z,20.33
2023-05-20T20:10:58.558Z,16.90
2023-05-20T20:13:27.940Z,18.70
2023-05-20T20:15:55.894Z,17.38
2023-05-20T20:18:24.168Z,17.08
2023-05-20T20:20:54.102Z,16.73
2023-05-20T20:23:22.312Z,20.13
2023-05-20T20:25:50.628Z,18.38
2023-05-20T20:28:18.789Z,18.15
2023-05-20T20:30:48.223Z,22.02
2023-05-20T20:33:16.358Z,20.67
2023-05-20T20:35:44.421Z,17.65
2023-05-20T20:38:12.494Z,19.70
2023-05-20T20:40:42.742Z,21.00
2023-05-20T20:43:20.570Z,22.90
2023-05-20T20:45:52.939Z,17.65
2023-05-20T20:48:26.906Z,21.23
2023-05-20T20:50:55.454Z,20.90
2023-05-20T20:53:23.652Z,18.55
2023-05-20T20:55:52.285Z,18.90
2023-05-20T20:58:20.401Z,18.00
2023-05-20T21:00:48.776Z,20.17
2023-05-20T21:03:19.136Z,19.90
2023-05-20T21:05:48.541Z,20.85
2023-05-20T21:08:16.720Z,19.95
2023-05-20T21:10:44.826Z,17.75
2023-05-20T21:13:12.843Z,19.15
2023-05-20T21:15:43.005Z,17.92
2023-05-20T21:18:11.463Z,19.38
2023-05-20T21:20:40.930Z,22.23
2023-05-20T21:23:08.917Z,21.40
2023-05-20T21:25:37.205Z,17.55
2023-05-20T21:28:05.864Z,19.35
2023-05-20T21:30:33.887Z,19.70
2023-05-20T21:33:02.027Z,21.17
2023-05-20T21:35:30.065Z,20.75
2023-05-20T21:37:59.770Z,19.08
2023-05-20T21:40:27.830Z,20.90
2023-05-20T21:42:55.899Z,20.67
2023-05-20T21:45:23.963Z,19.50
2023-05-20T21:47:52.036Z,19.63
2023-05-20T21:50:20.070Z,21.65
2023-05-20T21:52:48.007Z,21.65
2023-05-20T21:55:23.037Z,22.75
2023-05-20T21:57:51.172Z,20.85
2023-05-20T22:00:20.784Z,20.58
2023-05-20T22:02:49.082Z,20.40
2023-05-20T22:05:17.352Z,21.13
2023-05-20T22:08:03.939Z,22.92
2023-05-20T22:10:34.231Z,20.88
2023-05-20T22:13:03.028Z,20.60
2023-05-20T22:15:31.352Z,22.48
2023-05-20T22:17:59.568Z,20.35
2023-05-20T22:20:28.644Z,19.25
2023-05-20T22:22:56.583Z,23.10
2023-05-20T22:25:24.471Z,20.83
2023-05-20T22:27:53.816Z,21.85
2023-05-20T22:30:21.790Z,25.70
2023-05-20T22:32:49.802Z,21.33
2023-05-20T22:35:17.916Z,27.13
2023-05-20T22:37:45.806Z,22.15
2023-05-20T22:40:13.951Z,25.60
2023-05-20T22:42:41.906Z,23.73
2023-05-20T22:45:12.037Z,23.48
2023-05-20T22:47:40.355Z,21.73
2023-05-20T22:50:09.814Z,22.48
2023-05-20T22:52:37.783Z,23.90
2023-05-20T22:55:06.364Z,20.23
2023-05-20T22:57:34.503Z,22.45
2023-05-20T23:00:03.033Z,21.38
2023-05-20T23:02:32.443Z,24.85
2023-05-20T23:05:00.619Z,19.55
2023-05-20T23:07:29.492Z,21.00
2023-05-20T23:09:57.418Z,23.98
2023-05-20T23:12:25.402Z,20.80
2023-05-20T23:14:54.458Z,21.08
2023-05-20T23:17:22.378Z,20.13
2023-05-20T23:19:51.646Z,24.00
2023-05-20T23:22:19.601Z,19.70
2023-05-20T23:24:47.503Z,21.60
2023-05-20T23:27:15.713Z,26.00
2023-05-20T23:29:44.248Z,22.48
2023-05-20T23:32:12.261Z,22.77
2023-05-20T23:34:40.995Z,22.27
2023-05-20T23:37:10.410Z,23.65
2023-05-20T23:39:38.368Z,22.63
2023-05-20T23:42:06.607Z,21.77
2023-05-20T23:44:34.525Z,24.23
2023-05-20T23:47:03.732Z,23.10
2023-05-20T23:49:32.055Z,21.00
2023-05-20T23:51:59.950Z,20.98
2023-05-20T23:54:29.867Z,22.85
2023-05-20T23:56:57.901Z,21.08
2023-05-20T23:59:25.814Z,22.02
